Time;durP1;ratioP1;P1;durP2;ratioP2;P2;SDS_P1;SDS_P2;PMS_P1;PMS_P2;Temp;Humidity;BMP_temperature;BMP_pressure;BME280_temperature;BME280_humidity;BME280_pressure;Samples;Min_cycle;Max_cycle;Signal;HPM_P1;HPM_P2
2022/03/03 00:02:08;;;;;;;30.00;22.33;;;13.70;56.80;;;;;;4877130;29;20050;-78
2022/03/03 00:04:33;;;;;;;31.13;22.35;;;13.60;56.40;;;;;;4849883;29;20053;-79
2022/03/03 00:06:59;;;;;;;34.33;23.75;;;13.50;56.40;;;;;;4864857;29;20420;-78
2022/03/03 00:09:25;;;;;;;33.22;22.95;;;13.40;56.40;;;;;;4849750;29;20057;-79
2022/03/03 00:11:50;;;;;;;28.95;21.73;;;13.30;56.90;;;;;;4865764;29;20046;-81
2022/03/03 00:14:16;;;;;;;31.63;21.73;;;13.40;57.20;;;;;;4865715;29;20064;-79
2022/03/03 00:16:42;;;;;;;29.67;23.17;;;13.40;57.30;;;;;;4866505;29;20046;-76
2022/03/03 00:19:07;;;;;;;32.88;23.10;;;13.50;57.10;;;;;;4864985;29;20067;-79
2022/03/03 00:21:34;;;;;;;30.27;22.80;;;13.60;56.90;;;;;;4882112;29;20459;-77
2022/03/03 00:23:59;;;;;;;30.25;21.80;;;13.60;56.80;;;;;;4884157;29;20053;-79
2022/03/03 00:26:25;;;;;;;30.20;22.90;;;13.70;56.70;;;;;;4884890;29;20410;-79
2022/03/03 00:28:51;;;;;;;31.73;22.98;;;13.70;56.50;;;;;;4884227;29;20048;-79
2022/03/03 00:31:17;;;;;;;32.10;23.25;;;13.70;56.40;;;;;;4882967;29;20068;-78
2022/03/03 00:33:42;;;;;;;30.98;22.95;;;13.70;56.20;;;;;;4865283;29;20117;-77
2022/03/03 00:36:09;;;;;;;30.15;22.20;;;13.70;56.20;;;;;;4865606;29;20110;-79
2022/03/03 00:38:35;;;;;;;36.80;23.50;;;13.80;56.30;;;;;;4864747;29;20065;-76
2022/03/03 00:41:00;;;;;;;30.92;23.13;;;13.70;56.10;;;;;;4864322;29;20060;-78
2022/03/03 00:43:26;;;;;;;32.95;23.13;;;13.70;56.00;;;;;;4864143;29;20071;-78
2022/03/03 00:45:52;;;;;;;30.60;23.23;;;13.70;55.90;;;;;;4849126;29;20104;-78
2022/03/03 00:48:17;;;;;;;32.25;24.00;;;13.70;55.80;;;;;;4865398;29;20136;-78
2022/03/03 00:50:43;;;;;;;32.28;23.05;;;13.70;55.80;;;;;;4864338;29;20053;-79
2022/03/03 00:53:09;;;;;;;32.47;23.90;;;13.70;55.60;;;;;;4865167;29;20057;-78
2022/03/03 00:55:34;;;;;;;31.30;23.23;;;13.70;55.60;;;;;;4864300;29;20479;-78
2022/03/03 00:58:00;;;;;;;34.65;25.05;;;13.70;55.50;;;;;;4865137;29;20383;-79
2022/03/03 01:00:26;;;;;;;32.42;22.65;;;13.70;55.40;;;;;;4865150;29;20064;-79
2022/03/03 01:02:52;;;;;;;33.83;23.58;;;13.70;55.20;;;;;;4875377;29;20056;-78
2022/03/03 01:05:18;;;;;;;32.38;23.65;;;13.60;55.20;;;;;;4883032;29;20067;-78
2022/03/03 01:07:43;;;;;;;32.22;24.27;;;13.60;55.10;;;;;;4883541;29;20128;-78
2022/03/03 01:10:10;;;;;;;34.15;24.10;;;13.60;54.90;;;;;;4883317;29;20128;-78
2022/03/03 01:12:36;;;;;;;33.22;24.17;;;13.50;54.80;;;;;;4882589;29;20069;-78
2022/03/03 01:15:04;;;;;;;36.15;24.42;;;13.50;54.80;;;;;;4882912;29;20066;-78
2022/03/03 01:17:30;;;;;;;32.28;24.13;;;13.30;54.50;;;;;;4882622;29;20503;-78
2022/03/03 01:19:56;;;;;;;33.78;24.42;;;13.10;54.70;;;;;;4882848;29;20092;-78
2022/03/03 01:22:22;;;;;;;34.80;24.42;;;13.10;55.00;;;;;;4883264;29;20406;-77
2022/03/03 01:24:48;;;;;;;33.22;24.77;;;13.10;55.20;;;;;;4883052;29;20109;-77
2022/03/03 01:27:13;;;;;;;33.40;23.55;;;13.10;55.50;;;;;;4883809;29;20053;-78
2022/03/03 01:29:39;;;;;;;34.33;23.70;;;13.10;55.50;;;;;;4882883;29;20056;-80
2022/03/03 01:32:06;;;;;;;32.50;24.05;;;13.20;55.60;;;;;;4876885;29;20049;-76
2022/03/03 01:34:32;;;;;;;34.45;23.35;;;13.20;55.40;;;;;;4864047;29;20041;-77
2022/03/03 01:36:58;;;;;;;34.40;24.48;;;13.20;55.40;;;;;;4863392;29;20058;-78
2022/03/03 01:39:24;;;;;;;33.85;23.98;;;13.20;55.40;;;;;;4864457;29;20049;-78
2022/03/03 01:41:51;;;;;;;30.65;23.02;;;13.20;55.20;;;;;;4863328;29;20052;-78
2022/03/03 01:44:16;;;;;;;33.03;23.83;;;13.20;55.10;;;;;;4863227;29;20145;-77
2022/03/03 01:46:53;;;;;;;35.03;25.23;;;13.20;54.80;;;;;;4864245;29;20132;-79
2022/03/03 01:49:20;;;;;;;35.47;24.75;;;13.20;54.60;;;;;;4864427;29;20345;-77
2022/03/03 01:51:46;;;;;;;31.85;23.55;;;13.10;54.60;;;;;;4864090;29;20081;-77
2022/03/03 01:54:12;;;;;;;33.22;23.38;;;13.10;54.70;;;;;;4864115;29;20045;-80
2022/03/03 01:56:40;;;;;;;34.00;24.42;;;13.10;54.90;;;;;;4862921;29;20057;-78
2022/03/03 01:59:06;;;;;;;35.42;24.80;;;13.10;54.70;;;;;;4863059;29;20479;-78
2022/03/03 02:01:32;;;;;;;33.53;24.23;;;13.10;54.70;;;;;;4865818;29;20076;-79
2022/03/03 02:03:58;;;;;;;36.38;25.60;;;13.10;54.50;;;;;;4847023;29;20053;-80
2022/03/03 02:06:27;;;;;;;32.92;23.65;;;13.00;54.50;;;;;;4864141;29;20045;-78
2022/03/03 02:08:52;;;;;;;32.53;24.08;;;13.00;54.90;;;;;;4847797;29;20053;-79
2022/03/03 02:11:20;;;;;;;35.35;24.15;;;12.90;54.90;;;;;;4863591;29;20356;-79
2022/03/03 02:13:46;;;;;;;31.20;23.70;;;12.90;54.40;;;;;;4832009;29;20061;-78
2022/03/03 02:16:12;;;;;;;35.30;24.48;;;12.80;54.50;;;;;;4863329;29;20048;-81
2022/03/03 02:18:44;;;;;;;32.92;22.98;;;12.80;54.80;;;;;;4864284;29;20045;-79
2022/03/03 02:21:15;;;;;;;34.28;24.65;;;12.80;54.90;;;;;;4862783;29;20050;-79
2022/03/03 02:23:41;;;;;;;35.58;24.50;;;12.90;54.90;;;;;;4862299;29;20357;-80
2022/03/03 02:26:19;;;;;;;34.00;25.00;;;12.90;54.70;;;;;;4862745;29;20057;-79
2022/03/03 02:28:50;;;;;;;34.58;24.20;;;12.70;54.00;;;;;;4863192;29;20063;-77
2022/03/03 02:31:16;;;;;;;36.80;25.50;;;12.60;54.50;;;;;;4863401;29;20100;-78
2022/03/03 02:33:42;;;;;;;35.38;25.17;;;12.60;54.70;;;;;;4879080;29;20052;-78
2022/03/03 02:36:20;;;;;;;34.33;24.67;;;12.60;54.70;;;;;;4882195;29;20057;-77
2022/03/03 02:38:47;;;;;;;35.33;24.67;;;12.60;54.30;;;;;;4881572;29;20049;-77
2022/03/03 02:41:12;;;;;;;35.65;26.15;;;12.40;54.20;;;;;;4865458;29;20053;-77
2022/03/03 02:43:38;;;;;;;35.33;24.20;;;12.20;54.40;;;;;;4881072;29;20057;-79
2022/03/03 02:46:08;;;;;;;33.28;23.13;;;12.20;55.00;;;;;;4881847;29;20053;-79
2022/03/03 02:48:34;;;;;;;36.47;24.17;;;12.20;55.20;;;;;;4881757;29;20435;-77
2022/03/03 02:51:00;;;;;;;37.05;25.55;;;12.30;55.30;;;;;;4880835;29;20053;-77
2022/03/03 02:53:26;;;;;;;36.30;25.08;;;12.30;55.10;;;;;;4879948;29;20060;-77
2022/03/03 02:55:52;;;;;;;36.47;26.65;;;12.30;54.80;;;;;;4880470;29;20057;-78
2022/03/03 02:58:18;;;;;;;34.95;25.67;;;12.30;55.50;;;;;;4882428;29;20049;-77
2022/03/03 03:00:46;;;;;;;35.30;25.08;;;12.30;54.60;;;;;;4880811;29;20108;-77
2022/03/03 03:03:13;;;;;;;32.70;23.83;;;12.30;54.90;;;;;;4880408;29;20189;-77
2022/03/03 03:05:39;;;;;;;34.42;24.90;;;12.30;55.10;;;;;;4880716;29;20053;-80
2022/03/03 03:08:05;;;;;;;33.53;25.08;;;12.30;55.10;;;;;;4881046;29;20128;-80
2022/03/03 03:10:31;;;;;;;33.65;23.92;;;12.30;55.10;;;;;;4881266;29;20131;-77
2022/03/03 03:12:57;;;;;;;32.47;23.92;;;12.40;55.00;;;;;;4881399;29;20390;-78
2022/03/03 03:15:23;;;;;;;34.40;24.33;;;12.40;55.10;;;;;;4880631;29;20049;-78
2022/03/03 03:17:49;;;;;;;36.70;23.70;;;12.40;54.90;;;;;;4881538;29;20045;-77
2022/03/03 03:20:15;;;;;;;32.03;23.20;;;12.50;54.80;;;;;;4881915;29;20053;-78
2022/03/03 03:22:41;;;;;;;37.75;26.30;;;12.50;54.70;;;;;;4878071;29;20053;-79
2022/03/03 03:25:10;;;;;;;35.72;25.52;;;12.50;54.30;;;;;;4861710;29;20122;-77
2022/03/03 03:27:37;;;;;;;37.08;25.83;;;12.20;53.60;;;;;;4862883;29;20386;-78
2022/03/03 03:30:09;;;;;;;33.75;25.95;;;12.10;54.00;;;;;;4863307;29;20045;-78
2022/03/03 03:32:35;;;;;;;35.45;24.08;;;11.90;54.30;;;;;;4862544;29;20045;-77
2022/03/03 03:35:02;;;;;;;36.05;25.60;;;11.80;54.70;;;;;;4862385;29;20049;-79
2022/03/03 03:37:27;;;;;;;33.72;24.42;;;11.90;55.10;;;;;;4862501;29;20101;-79
2022/03/03 03:39:53;;;;;;;36.15;26.75;;;11.90;55.00;;;;;;4862367;29;20053;-79
2022/03/03 03:42:19;;;;;;;34.80;23.70;;;11.90;54.80;;;;;;4862635;29;20100;-79
2022/03/03 03:44:45;;;;;;;34.80;24.92;;;11.90;54.90;;;;;;4862586;29;20093;-79
2022/03/03 03:47:12;;;;;;;34.67;24.50;;;11.90;55.00;;;;;;4846186;29;20088;-78
2022/03/03 03:49:38;;;;;;;34.17;24.48;;;11.90;54.90;;;;;;4862411;29;20490;-79
2022/03/03 03:52:04;;;;;;;37.45;25.25;;;12.00;54.30;;;;;;4862346;29;20049;-79
2022/03/03 03:54:30;;;;;;;38.20;26.00;;;11.90;54.50;;;;;;4880449;29;20055;-79
2022/03/03 03:56:55;;;;;;;37.22;25.38;;;11.80;54.30;;;;;;4880018;29;20113;-78
2022/03/03 03:59:21;;;;;;;36.30;25.70;;;11.80;54.40;;;;;;4881095;29;20045;-79
2022/03/03 04:01:47;;;;;;;36.60;25.35;;;11.80;54.40;;;;;;4876105;29;20037;-80
2022/03/03 04:04:13;;;;;;;32.70;23.98;;;11.80;54.60;;;;;;4861703;29;20057;-79
2022/03/03 04:06:38;;;;;;;35.20;25.30;;;11.80;54.50;;;;;;4862779;29;20421;-79
2022/03/03 04:09:04;;;;;;;34.28;23.75;;;11.80;54.30;;;;;;4846456;29;20141;-79
2022/03/03 04:11:30;;;;;;;33.13;24.13;;;11.80;54.50;;;;;;4862452;29;20452;-80
2022/03/03 04:13:57;;;;;;;31.00;23.50;;;11.80;54.70;;;;;;4861623;29;20110;-78
2022/03/03 04:16:26;;;;;;;38.42;25.30;;;11.70;54.40;;;;;;4861188;29;20060;-79
2022/03/03 04:18:52;;;;;;;35.00;24.20;;;11.80;54.10;;;;;;4862681;29;20049;-78
2022/03/03 04:21:18;;;;;;;32.70;23.42;;;11.70;54.20;;;;;;4861031;29;20046;-79
2022/03/03 04:23:44;;;;;;;35.25;25.30;;;11.60;54.10;;;;;;4862077;29;20041;-78
2022/03/03 04:26:10;;;;;;;36.58;25.50;;;11.50;54.50;;;;;;4861823;29;20065;-77
2022/03/03 04:28:36;;;;;;;34.88;24.88;;;11.50;54.70;;;;;;4865956;29;20050;-78
2022/03/03 04:31:03;;;;;;;37.25;25.80;;;11.50;54.70;;;;;;4864660;29;20053;-77
2022/03/03 04:33:28;;;;;;;34.65;25.35;;;11.40;55.10;;;;;;4865125;29;20122;-79
2022/03/03 04:35:55;;;;;;;34.63;24.38;;;11.30;55.30;;;;;;4865150;29;20459;-78
2022/03/03 04:38:21;;;;;;;37.30;25.98;;;11.30;55.30;;;;;;4865456;29;20061;-77
2022/03/03 04:40:47;;;;;;;32.92;24.02;;;11.20;55.30;;;;;;4880357;29;20053;-77
2022/03/03 04:43:12;;;;;;;37.15;25.80;;;11.20;55.50;;;;;;4848817;29;20173;-79
2022/03/03 04:45:38;;;;;;;34.97;24.55;;;11.20;55.30;;;;;;4865244;29;20053;-78
2022/03/03 04:48:04;;;;;;;36.08;24.75;;;11.30;55.60;;;;;;4865262;29;20072;-76
2022/03/03 04:50:30;;;;;;;36.63;24.85;;;11.40;55.70;;;;;;4864005;29;20142;-77
2022/03/03 04:52:56;;;;;;;33.00;24.55;;;11.40;55.40;;;;;;4865039;29;20045;-78
2022/03/03 04:55:22;;;;;;;31.73;23.40;;;11.40;55.10;;;;;;4864613;29;20128;-78
2022/03/03 04:57:48;;;;;;;32.88;23.20;;;11.40;55.00;;;;;;4864819;29;20136;-79
2022/03/03 05:00:14;;;;;;;32.38;23.17;;;11.40;55.20;;;;;;4865627;29;20076;-77
2022/03/03 05:02:40;;;;;;;36.45;24.65;;;11.50;55.10;;;;;;4873303;29;20061;-77
2022/03/03 05:05:06;;;;;;;36.08;25.15;;;11.50;55.00;;;;;;4882733;29;20133;-77
2022/03/03 05:07:32;;;;;;;33.67;23.98;;;11.40;54.70;;;;;;4883598;29;20049;-78
2022/03/03 05:09:58;;;;;;;31.00;22.83;;;11.50;54.80;;;;;;4882790;29;20489;-78
2022/03/03 05:12:23;;;;;;;36.13;22.98;;;11.40;54.50;;;;;;4883426;29;20049;-78
2022/03/03 05:14:50;;;;;;;34.30;24.67;;;11.40;54.70;;;;;;4874502;29;20116;-77
2022/03/03 05:17:15;;;;;;;31.58;23.25;;;11.30;54.60;;;;;;4864443;29;20059;-77
2022/03/03 05:19:41;;;;;;;34.45;22.92;;;11.30;54.80;;;;;;4864564;29;20422;-78
2022/03/03 05:22:07;;;;;;;29.50;21.77;;;11.30;55.00;;;;;;4864750;29;20045;-78
2022/03/03 05:24:32;;;;;;;34.53;22.48;;;11.40;55.60;;;;;;4874854;29;20101;-76
2022/03/03 05:26:58;;;;;;;29.45;22.73;;;11.50;55.20;;;;;;4865308;29;20459;-78
2022/03/03 05:29:25;;;;;;;31.83;22.55;;;11.50;54.00;;;;;;4863463;29;20049;-73
2022/03/03 05:31:51;;;;;;;34.78;24.02;;;11.60;53.00;;;;;;4864439;29;20359;-73
2022/03/03 05:34:17;;;;;;;34.47;23.90;;;11.60;52.30;;;;;;4864254;29;20049;-69
2022/03/03 05:36:44;;;;;;;33.47;24.25;;;11.70;51.70;;;;;;4864133;29;20057;-68
2022/03/03 05:39:09;;;;;;;31.55;22.05;;;11.70;51.30;;;;;;4863569;29;20061;-71
2022/03/03 05:41:38;;;;;;;36.53;25.05;;;11.80;51.20;;;;;;4865987;29;20060;-75
2022/03/03 05:44:06;;;;;;;34.97;22.58;;;11.80;52.40;;;;;;4882141;29;20081;-74
2022/03/03 05:46:31;;;;;;;31.83;24.45;;;11.90;54.10;;;;;;4865958;29;20124;-74
2022/03/03 05:48:57;;;;;;;34.90;23.17;;;11.90;58.00;;;;;;4866744;29;20123;-74
2022/03/03 05:51:23;;;;;;;30.63;22.70;;;12.10;58.00;;;;;;4882956;29;20382;-75
2022/03/03 05:53:49;;;;;;;29.98;21.10;;;12.30;56.70;;;;;;4867254;29;20040;-75
2022/03/03 05:56:18;;;;;;;24.50;18.33;;;12.50;55.90;;;;;;4880551;29;20052;-77
2022/03/03 05:58:49;;;;;;;25.83;19.33;;;12.70;55.60;;;;;;4864005;29;20064;-78
2022/03/03 06:01:18;;;;;;;25.25;17.77;;;12.90;55.40;;;;;;4866174;29;20124;-75
2022/03/03 06:03:50;;;;;;;25.30;16.90;;;13.20;55.60;;;;;;4862290;29;20053;-76
2022/03/03 06:06:25;;;;;;;21.88;15.93;;;13.40;55.80;;;;;;4863811;29;20059;-76
2022/03/03 06:09:11;;;;;;;19.90;14.45;;;13.70;55.70;;;;;;4862548;29;20095;-76
2022/03/03 06:11:48;;;;;;;22.85;14.85;;;13.90;56.00;;;;;;4878031;29;20122;-74
2022/03/03 06:14:20;;;;;;;23.63;13.38;;;14.00;55.90;;;;;;4878524;29;20364;-76
2022/03/03 06:16:48;;;;;;;19.98;13.50;;;14.20;56.40;;;;;;4860510;29;20073;-76
2022/03/03 06:19:15;;;;;;;21.05;12.95;;;14.30;56.30;;;;;;4863291;29;20072;-75
2022/03/03 06:21:41;;;;;;;20.02;11.40;;;14.50;56.20;;;;;;4862261;29;20088;-76
2022/03/03 06:24:07;;;;;;;20.88;12.25;;;14.70;56.20;;;;;;4873318;29;20084;-76
2022/03/03 06:26:32;;;;;;;17.17;10.90;;;14.70;56.30;;;;;;4861991;29;20058;-76
2022/03/03 06:28:58;;;;;;;15.70;10.73;;;14.80;56.10;;;;;;4862777;29;20049;-76
2022/03/03 06:31:26;;;;;;;17.80;11.57;;;14.90;56.00;;;;;;4847014;29;20091;-74
2022/03/03 06:33:51;;;;;;;19.75;10.90;;;15.00;56.00;;;;;;4863155;29;20041;-72
2022/03/03 06:36:17;;;;;;;17.98;11.95;;;15.00;56.20;;;;;;4862670;29;20148;-74
2022/03/03 06:38:43;;;;;;;17.48;11.45;;;15.10;55.40;;;;;;4863097;29;20060;-76
2022/03/03 06:41:09;;;;;;;17.38;11.82;;;15.00;54.60;;;;;;4863107;29;20049;-72
2022/03/03 06:43:35;;;;;;;22.27;11.73;;;15.10;54.30;;;;;;4862954;29;20041;-79
2022/03/03 06:46:02;;;;;;;21.38;12.10;;;15.10;54.90;;;;;;4863077;29;20046;-79
2022/03/03 06:48:28;;;;;;;20.10;11.48;;;15.20;54.90;;;;;;4872854;29;20124;-77
2022/03/03 06:50:55;;;;;;;16.77;10.75;;;15.20;55.10;;;;;;4881044;29;20057;-78
2022/03/03 06:53:28;;;;;;;16.48;10.10;;;15.30;55.30;;;;;;4863971;29;20057;-77
2022/03/03 06:56:03;;;;;;;19.63;10.63;;;15.40;55.60;;;;;;4881295;29;20079;-77
2022/03/03 06:58:30;;;;;;;16.98;10.27;;;15.50;55.40;;;;;;4853450;29;20049;-74
2022/03/03 07:01:00;;;;;;;18.73;11.00;;;15.60;55.50;;;;;;4862893;29;20068;-77
2022/03/03 07:03:28;;;;;;;18.23;9.73;;;15.50;54.60;;;;;;4862985;29;20065;-76
2022/03/03 07:05:54;;;;;;;22.17;10.52;;;15.70;55.50;;;;;;4880714;29;20168;-77
2022/03/03 07:08:20;;;;;;;19.60;10.05;;;15.80;55.40;;;;;;4864610;29;20101;-80
2022/03/03 07:10:46;;;;;;;17.35;9.60;;;15.90;55.30;;;;;;4864722;29;20056;-78
2022/03/03 07:13:14;;;;;;;18.05;9.82;;;16.00;55.30;;;;;;4881293;29;20048;-77
2022/03/03 07:15:49;;;;;;;19.77;9.85;;;16.00;54.80;;;;;;4855666;29;20149;-80
2022/03/03 07:18:23;;;;;;;19.67;10.63;;;16.10;54.60;;;;;;4870260;29;20053;-78
2022/03/03 07:21:05;;;;;;;14.32;8.60;;;16.10;54.40;;;;;;4859164;29;20071;-77
2022/03/03 07:23:37;;;;;;;14.63;9.05;;;16.10;54.20;;;;;;4848558;29;20125;-78
2022/03/03 07:26:05;;;;;;;16.08;9.18;;;16.10;54.10;;;;;;4862524;29;20053;-78
2022/03/03 07:28:31;;;;;;;12.90;8.98;;;16.10;54.00;;;;;;4846597;29;20132;-77
2022/03/03 07:31:01;;;;;;;15.30;9.13;;;16.20;53.90;;;;;;4849876;29;20053;-80
2022/03/03 07:33:45;;;;;;;15.43;8.73;;;16.20;53.70;;;;;;4880970;29;20053;-77
2022/03/03 07:36:17;;;;;;;14.02;8.13;;;16.20;53.30;;;;;;4879264;29;20475;-79
2022/03/03 07:38:45;;;;;;;10.98;8.13;;;16.30;53.40;;;;;;4864483;29;20061;-77
2022/03/03 07:41:14;;;;;;;11.80;7.90;;;16.40;53.20;;;;;;4851770;29;20348;-76
2022/03/03 07:43:43;;;;;;;13.15;8.45;;;16.40;52.90;;;;;;4835527;29;20360;-79
2022/03/03 07:46:14;;;;;;;18.00;9.50;;;16.50;52.60;;;;;;4857476;29;20057;-78
2022/03/03 07:49:28;;;;;;;16.02;9.40;;;16.60;51.90;;;;;;4846415;29;20041;-82
2022/03/03 07:55:42;;;;;;;13.70;8.52;;;16.70;50.80;;;;;;4879164;29;20057;-80
2022/03/03 08:04:54;;;;;;;11.43;7.38;;;16.50;51.40;;;;;;4872421;29;20049;-85
2022/03/03 08:07:20;;;;;;;12.32;7.50;;;16.60;51.90;;;;;;4849211;29;20045;-84
2022/03/03 08:09:47;;;;;;;14.85;8.00;;;16.60;51.90;;;;;;4834609;29;20045;-78
2022/03/03 08:12:16;;;;;;;12.75;8.25;;;16.60;52.00;;;;;;4867352;29;20053;-83
2022/03/03 08:14:42;;;;;;;19.33;8.35;;;16.70;51.60;;;;;;4867263;29;20057;-76
2022/03/03 08:17:08;;;;;;;20.45;8.27;;;16.60;51.70;;;;;;4867254;29;20059;-75
2022/03/03 08:19:34;;;;;;;11.15;7.43;;;16.70;51.90;;;;;;4868827;29;20046;-79
2022/03/03 08:22:00;;;;;;;10.65;7.18;;;16.70;52.10;;;;;;4862731;29;20158;-78
2022/03/03 08:24:26;;;;;;;15.73;8.20;;;16.70;52.20;;;;;;4883753;29;20147;-77
2022/03/03 08:26:55;;;;;;;14.30;7.65;;;16.80;52.50;;;;;;4867606;29;20379;-75
2022/03/03 08:29:21;;;;;;;13.20;7.45;;;16.90;52.70;;;;;;4867952;29;20124;-76
2022/03/03 08:31:52;;;;;;;12.80;7.30;;;16.90;52.80;;;;;;4879742;29;20098;-76
2022/03/03 08:34:37;;;;;;;12.35;6.97;;;17.00;53.50;;;;;;4854612;29;20104;-77
2022/03/03 08:37:06;;;;;;;11.75;6.50;;;17.00;53.00;;;;;;4882931;29;20069;-75
2022/03/03 08:39:38;;;;;;;9.65;6.80;;;17.00;53.00;;;;;;4883990;29;20064;-76
2022/03/03 08:42:08;;;;;;;10.60;7.10;;;17.00;53.10;;;;;;4865812;29;20049;-79
2022/03/03 08:44:36;;;;;;;13.90;6.50;;;17.10;53.20;;;;;;4851413;29;20058;-77
2022/03/03 08:47:05;;;;;;;12.38;6.43;;;17.10;53.30;;;;;;4851912;29;20053;-78
2022/03/03 08:49:40;;;;;;;13.45;6.20;;;17.10;53.30;;;;;;4865512;29;20399;-77
2022/03/03 08:52:07;;;;;;;9.35;5.75;;;17.10;53.40;;;;;;4867094;29;20049;-78
2022/03/03 08:54:33;;;;;;;11.10;6.45;;;17.20;53.60;;;;;;4865317;29;20096;-77
2022/03/03 08:57:00;;;;;;;10.73;5.57;;;17.20;53.70;;;;;;4883661;29;20056;-78
2022/03/03 08:59:26;;;;;;;8.85;6.47;;;17.30;53.70;;;;;;4852300;29;20085;-76
2022/03/03 09:01:53;;;;;;;10.75;5.65;;;16.80;49.10;;;;;;4872144;29;20045;-77
2022/03/03 09:04:19;;;;;;;11.88;6.38;;;15.80;51.60;;;;;;4866871;29;20072;-76
2022/03/03 09:06:45;;;;;;;11.93;6.05;;;15.20;54.40;;;;;;4864673;29;20057;-78
2022/03/03 09:09:11;;;;;;;11.20;6.93;;;14.90;56.00;;;;;;4864003;29;20057;-76
2022/03/03 09:11:38;;;;;;;7.88;5.85;;;14.50;57.00;;;;;;4865398;29;20117;-77
2022/03/03 09:14:05;;;;;;;6.63;5.38;;;14.40;57.50;;;;;;4863542;29;20452;-76
2022/03/03 09:16:31;;;;;;;10.40;6.03;;;14.90;57.90;;;;;;4857034;29;20049;-76
2022/03/03 09:18:58;;;;;;;7.82;5.72;;;15.40;56.90;;;;;;4867016;29;20113;-77
2022/03/03 09:21:24;;;;;;;9.75;6.57;;;15.90;56.00;;;;;;4856937;29;20053;-77
2022/03/03 09:23:49;;;;;;;9.50;6.32;;;16.30;54.80;;;;;;4855747;29;20049;-77
2022/03/03 09:26:15;;;;;;;9.02;6.47;;;16.50;53.70;;;;;;4879104;29;20057;-77
2022/03/03 09:28:41;;;;;;;9.07;5.93;;;16.70;53.00;;;;;;4864736;29;20088;-79
2022/03/03 09:31:12;;;;;;;10.90;5.82;;;16.90;52.50;;;;;;4849286;29;20053;-78
2022/03/03 09:33:38;;;;;;;9.25;5.38;;;17.10;52.30;;;;;;4847961;29;20068;-79
2022/03/03 09:36:04;;;;;;;9.57;6.35;;;17.20;52.00;;;;;;4863853;29;20041;-78
2022/03/03 09:38:30;;;;;;;8.48;5.05;;;17.20;51.60;;;;;;4864167;29;20416;-77
2022/03/03 09:40:56;;;;;;;8.68;5.28;;;17.30;51.70;;;;;;4864401;29;20125;-77
2022/03/03 09:43:22;;;;;;;9.48;5.63;;;17.30;52.00;;;;;;4864757;29;20439;-78
2022/03/03 09:45:48;;;;;;;8.18;5.22;;;17.30;51.60;;;;;;4848669;29;20060;-77
2022/03/03 09:48:13;;;;;;;12.70;5.75;;;17.30;51.80;;;;;;4864400;29;20437;-78
2022/03/03 09:50:41;;;;;;;8.50;5.97;;;17.20;51.40;;;;;;4864366;29;20049;-79
2022/03/03 09:53:17;;;;;;;13.30;5.90;;;17.20;51.50;;;;;;4863437;29;20113;-78
2022/03/03 09:55:45;;;;;;;13.73;5.43;;;17.10;51.50;;;;;;4865143;29;20060;-80
2022/03/03 09:58:10;;;;;;;8.52;5.45;;;17.00;51.70;;;;;;4882001;29;20136;-81
2022/03/03 10:00:40;;;;;;;6.95;5.13;;;17.00;52.00;;;;;;4856108;29;20132;-78
2022/03/03 10:03:13;;;;;;;6.93;5.32;;;16.90;52.50;;;;;;4878070;29;20344;-80
2022/03/03 10:05:52;;;;;;;8.03;5.13;;;16.90;52.80;;;;;;4854561;29;20058;-77
2022/03/03 10:08:23;;;;;;;8.35;5.68;;;16.80;52.80;;;;;;4848404;29;20061;-79
2022/03/03 10:10:52;;;;;;;9.40;5.53;;;16.80;53.00;;;;;;4863847;29;20516;-78
2022/03/03 10:13:18;;;;;;;8.95;5.55;;;16.70;53.20;;;;;;4863257;29;20437;-77
2022/03/03 10:15:49;;;;;;;8.50;5.45;;;16.70;53.40;;;;;;4863546;29;20057;-77
2022/03/03 10:18:18;;;;;;;8.35;5.22;;;16.60;53.50;;;;;;4863615;29;20144;-76
2022/03/03 10:20:53;;;;;;;8.07;4.78;;;16.60;53.50;;;;;;4847475;29;20050;-78
2022/03/03 10:23:24;;;;;;;5.80;4.57;;;16.50;53.40;;;;;;4863670;29;20359;-79
2022/03/03 10:25:52;;;;;;;9.30;5.25;;;16.50;53.30;;;;;;4863493;29;20464;-80
2022/03/03 10:28:39;;;;;;;8.27;5.63;;;16.50;53.20;;;;;;4862817;29;20081;-77
2022/03/03 10:31:10;;;;;;;7.70;5.28;;;16.50;53.20;;;;;;4846466;29;20060;-78
2022/03/03 10:33:47;;;;;;;8.15;5.20;;;16.50;53.20;;;;;;4863558;29;20049;-79
2022/03/03 10:36:15;;;;;;;8.25;5.40;;;16.50;53.00;;;;;;4863995;29;20104;-76
2022/03/03 10:38:51;;;;;;;7.70;4.88;;;16.50;52.90;;;;;;4864769;29;20048;-78
2022/03/03 10:41:34;;;;;;;9.85;4.78;;;16.50;52.80;;;;;;4862665;29;20059;-79
2022/03/03 10:44:02;;;;;;;7.40;4.82;;;16.50;52.80;;;;;;4863371;29;20089;-78
2022/03/03 10:46:29;;;;;;;6.72;4.78;;;16.50;52.80;;;;;;4863759;29;20356;-78
2022/03/03 10:48:54;;;;;;;6.07;4.25;;;16.50;52.80;;;;;;4863370;29;20132;-78
2022/03/03 10:51:24;;;;;;;8.05;5.35;;;16.50;52.80;;;;;;4862485;29;20420;-76
2022/03/03 10:54:02;;;;;;;8.13;6.00;;;16.50;52.60;;;;;;4863029;29;20060;-76
2022/03/03 10:56:28;;;;;;;9.45;5.75;;;16.50;52.30;;;;;;4862728;29;20102;-77
2022/03/03 10:58:58;;;;;;;8.13;5.25;;;16.60;52.30;;;;;;4862109;29;20417;-78
2022/03/03 11:01:25;;;;;;;8.48;5.03;;;16.60;52.40;;;;;;4861118;29;20053;-74
2022/03/03 11:03:53;;;;;;;6.75;4.82;;;16.50;52.50;;;;;;4862416;29;20049;-76
2022/03/03 11:06:21;;;;;;;9.98;4.40;;;16.60;52.70;;;;;;4844313;29;20049;-76
2022/03/03 11:08:48;;;;;;;14.65;4.97;;;16.60;52.90;;;;;;4847522;29;20104;-75
2022/03/03 11:11:14;;;;;;;7.25;4.55;;;16.60;53.40;;;;;;4846741;29;20094;-75
2022/03/03 11:13:40;;;;;;;8.98;5.03;;;16.60;53.40;;;;;;4861893;29;20059;-77
2022/03/03 11:16:07;;;;;;;9.45;4.82;;;16.60;53.70;;;;;;4862562;29;20064;-77
2022/03/03 11:18:33;;;;;;;5.75;4.35;;;16.60;53.70;;;;;;4862943;29;20371;-78
2022/03/03 11:20:59;;;;;;;8.20;4.57;;;16.60;53.80;;;;;;4862133;29;20057;-77
2022/03/03 11:23:37;;;;;;;8.45;4.53;;;16.60;53.90;;;;;;4861280;29;20143;-78
2022/03/03 11:26:04;;;;;;;10.10;4.90;;;16.60;54.00;;;;;;4861456;29;20057;-77
2022/03/03 11:28:36;;;;;;;7.65;5.20;;;16.60;54.50;;;;;;4847144;29;20206;-78
2022/03/03 11:31:21;;;;;;;10.93;6.55;;;16.60;53.60;;;;;;4862201;29;20463;-77
2022/03/03 11:33:47;;;;;;;13.07;7.50;;;16.60;51.40;;;;;;4862169;29;20467;-78
2022/03/03 11:36:20;;;;;;;8.77;6.13;;;16.50;51.80;;;;;;4881730;29;20135;-77
2022/03/03 11:38:53;;;;;;;5.97;5.30;;;16.50;51.60;;;;;;4884473;29;20139;-78
2022/03/03 11:41:23;;;;;;;9.23;5.80;;;16.40;51.80;;;;;;4884869;29;20301;-77
2022/03/03 11:44:08;;;;;;;6.82;5.28;;;16.40;52.10;;;;;;4881928;29;20052;-77
2022/03/03 11:46:48;;;;;;;6.97;4.95;;;16.40;52.30;;;;;;4866422;29;20049;-77
2022/03/03 11:49:25;;;;;;;9.20;5.30;;;16.30;52.50;;;;;;4884051;29;20045;-77
2022/03/03 11:51:55;;;;;;;8.55;4.75;;;16.30;53.00;;;;;;4883671;29;20470;-76
2022/03/03 11:54:29;;;;;;;8.43;4.75;;;16.30;53.30;;;;;;4884512;29;20053;-77
2022/03/03 11:57:07;;;;;;;6.80;4.30;;;16.20;53.40;;;;;;4884766;29;20057;-76
2022/03/03 11:59:40;;;;;;;6.63;4.30;;;16.20;53.00;;;;;;4868361;29;20139;-77
2022/03/03 12:02:06;;;;;;;7.05;4.40;;;16.00;54.30;;;;;;4877523;29;20160;-74
2022/03/03 12:04:33;;;;;;;6.57;4.50;;;16.00;55.40;;;;;;4866157;29;20121;-77
2022/03/03 12:06:59;;;;;;;8.15;4.72;;;16.00;55.40;;;;;;4865834;29;20049;-76
2022/03/03 12:09:26;;;;;;;5.35;4.65;;;15.90;55.20;;;;;;4866159;29;20136;-77
2022/03/03 12:12:13;;;;;;;6.63;4.72;;;16.00;54.80;;;;;;4865760;29;20053;-77
2022/03/03 12:14:50;;;;;;;6.28;4.60;;;15.90;54.40;;;;;;4865446;29;20434;-76
2022/03/03 12:17:42;;;;;;;9.68;4.80;;;15.90;54.90;;;;;;4849582;29;20087;-78
2022/03/03 12:23:18;;;;;;;5.43;4.13;;;15.90;54.60;;;;;;4854190;29;20089;-77
2022/03/03 12:25:58;;;;;;;7.88;4.47;;;15.90;55.00;;;;;;4865568;29;20064;-77
2022/03/03 12:28:45;;;;;;;5.53;4.03;;;15.90;55.10;;;;;;4865686;29;20114;-77
2022/03/03 12:31:40;;;;;;;6.25;4.60;;;15.80;54.90;;;;;;4863198;29;20099;-77
2022/03/03 12:34:07;;;;;;;7.10;4.18;;;15.80;55.00;;;;;;4865497;29;20062;-78
2022/03/03 12:36:44;;;;;;;6.38;4.35;;;15.80;55.40;;;;;;4865179;29;20077;-78
2022/03/03 12:39:10;;;;;;;4.70;3.40;;;15.80;55.60;;;;;;4865342;29;20062;-76
2022/03/03 12:41:38;;;;;;;5.40;3.63;;;15.70;55.60;;;;;;4865686;29;20057;-77
2022/03/03 12:44:07;;;;;;;6.03;3.88;;;15.70;55.80;;;;;;4867971;29;20085;-78
2022/03/03 12:46:34;;;;;;;5.45;3.70;;;15.70;55.80;;;;;;4884117;29;20371;-78
2022/03/03 12:49:06;;;;;;;3.95;3.50;;;15.60;55.90;;;;;;4884178;29;20514;-77
2022/03/03 12:51:33;;;;;;;5.85;3.50;;;15.70;56.00;;;;;;4856360;29;20065;-78
2022/03/03 12:54:05;;;;;;;5.55;3.67;;;15.60;55.90;;;;;;4865305;29;20050;-78